createdAt,value
2023-01-21T00:02:10.619Z,52.67
2023-01-21T00:05:32.233Z,63.40
2023-01-21T00:08:53.940Z,78.07
2023-01-21T00:12:17.343Z,57.97
2023-01-21T00:15:39.025Z,55.30
2023-01-21T00:19:00.997Z,53.47
2023-01-21T00:22:22.797Z,56.33
2023-01-21T00:25:44.679Z,57.67
2023-01-21T00:29:07.968Z,51.13
2023-01-21T00:32:29.539Z,55.83
2023-01-21T00:35:58.637Z,52.50
2023-01-21T00:39:20.310Z,54.57
2023-01-21T00:42:42.296Z,50.20
2023-01-21T00:46:05.651Z,49.10
2023-01-21T00:49:27.242Z,43.07
2023-01-21T00:52:48.883Z,47.07
2023-01-21T00:56:12.008Z,43.57
2023-01-21T00:59:33.950Z,41.83
2023-01-21T01:02:57.214Z,44.80
2023-01-21T01:06:19.980Z,42.50
2023-01-21T01:09:41.770Z,41.80
2023-01-21T01:13:03.454Z,43.83
2023-01-21T01:16:25.549Z,39.53
2023-01-21T01:19:48.528Z,39.03
2023-01-21T01:23:10.249Z,35.87
2023-01-21T01:26:31.955Z,41.67
2023-01-21T01:29:53.490Z,37.33
2023-01-21T01:33:15.354Z,33.73
2023-01-21T01:36:38.563Z,34.20
2023-01-21T01:40:00.671Z,31.97
2023-01-21T01:43:24.635Z,28.73
2023-01-21T01:46:46.354Z,31.47
2023-01-21T01:50:12.764Z,30.23
2023-01-21T01:53:38.320Z,31.03
2023-01-21T01:57:03.372Z,32.40
2023-01-21T02:00:26.611Z,28.83
2023-01-21T02:03:54.399Z,29.47
2023-01-21T02:07:18.277Z,28.70
2023-01-21T02:10:42.727Z,26.27
2023-01-21T02:14:05.039Z,26.40
2023-01-21T02:17:41.299Z,26.03
2023-01-21T02:21:51.450Z,23.73
2023-01-21T02:25:59.726Z,25.60
2023-01-21T02:29:49.699Z,25.03
2023-01-21T02:33:47.625Z,21.77
2023-01-21T02:37:17.673Z,23.40
2023-01-21T02:40:48.161Z,25.17
2023-01-21T02:44:14.821Z,20.23
2023-01-21T02:47:41.701Z,17.57
2023-01-21T02:51:05.735Z,17.33
2023-01-21T02:54:54.063Z,17.50
2023-01-21T02:58:19.716Z,16.67
2023-01-21T03:01:54.309Z,16.13
2023-01-21T03:05:26.046Z,18.73
2023-01-21T03:08:54.067Z,15.80
2023-01-21T03:12:32.478Z,14.50
2023-01-21T03:16:15.673Z,12.23
2023-01-21T03:19:42.436Z,11.33
2023-01-21T03:23:06.507Z,14.47
2023-01-21T03:26:32.863Z,12.13
2023-01-21T03:30:00.087Z,14.93
2023-01-21T03:33:23.813Z,13.03
2023-01-21T03:36:50.190Z,12.37
2023-01-21T03:40:19.917Z,13.40
2023-01-21T03:43:41.849Z,13.37
2023-01-21T03:47:14.616Z,13.77
2023-01-21T03:50:41.239Z,14.93
2023-01-21T03:54:03.039Z,11.60
2023-01-21T03:57:24.452Z,14.27
2023-01-21T04:00:46.799Z,12.07
2023-01-21T04:04:11.107Z,14.83
2023-01-21T04:07:32.626Z,11.13
2023-01-21T04:10:54.254Z,10.73
2023-01-21T04:14:15.410Z,14.70
2023-01-21T04:17:36.689Z,14.57
2023-01-21T04:20:59.875Z,12.30
2023-01-21T04:24:21.682Z,11.43
2023-01-21T04:27:42.995Z,11.87
2023-01-21T04:31:04.256Z,13.27
2023-01-21T04:34:26.147Z,11.67
2023-01-21T04:37:49.311Z,12.03
2023-01-21T04:41:11.139Z,12.93
2023-01-21T04:44:33.098Z,12.80
2023-01-21T04:47:54.353Z,12.63
2023-01-21T04:51:15.983Z,14.40
2023-01-21T04:54:39.070Z,13.43
2023-01-21T04:58:00.787Z,14.47
2023-01-21T05:01:22.574Z,14.63
2023-01-21T05:04:44.643Z,16.87
2023-01-21T05:08:06.758Z,14.37
2023-01-21T05:11:29.919Z,18.93
2023-01-21T05:14:53.981Z,16.20
2023-01-21T05:18:15.510Z,13.97
2023-01-21T05:21:37.457Z,15.80
2023-01-21T05:25:00.503Z,16.67
2023-01-21T05:28:23.918Z,16.13
2023-01-21T05:31:46.314Z,16.33
2023-01-21T05:35:08.981Z,18.87
2023-01-21T05:38:31.270Z,21.23
2023-01-21T05:41:52.994Z,20.57
2023-01-21T05:45:16.653Z,19.13
2023-01-21T05:48:38.150Z,22.87
2023-01-21T05:51:59.765Z,25.57
2023-01-21T05:55:21.550Z,22.80
2023-01-21T05:58:43.247Z,25.73
2023-01-21T06:02:06.447Z,25.10
2023-01-21T06:05:28.123Z,27.67
2023-01-21T06:08:49.813Z,23.83
2023-01-21T06:12:11.659Z,24.40
2023-01-21T06:15:33.721Z,25.33
2023-01-21T06:18:56.967Z,21.73
2023-01-21T06:22:19.493Z,23.00
2023-01-21T06:25:43.571Z,25.87
2023-01-21T06:29:05.341Z,24.30
2023-01-21T06:32:27.332Z,22.63
2023-01-21T06:35:50.476Z,26.57
2023-01-21T06:39:12.410Z,24.53
2023-01-21T06:42:34.347Z,25.67
2023-01-21T06:45:56.375Z,25.23
2023-01-21T06:49:18.081Z,23.27
2023-01-21T06:52:43.351Z,25.77
2023-01-21T06:56:05.395Z,23.27
2023-01-21T06:59:27.144Z,23.90
2023-01-21T07:02:48.954Z,23.37
2023-01-21T07:06:10.695Z,24.10
2023-01-21T07:09:33.727Z,29.33
2023-01-21T07:12:55.928Z,23.30
2023-01-21T07:16:17.542Z,24.47
2023-01-21T07:19:39.358Z,24.37
2023-01-21T07:23:01.108Z,22.03
2023-01-21T07:26:24.774Z,22.07
2023-01-21T07:29:46.658Z,23.73
2023-01-21T07:33:10.047Z,25.37
2023-01-21T07:36:32.047Z,23.23
2023-01-21T07:39:55.896Z,23.67
2023-01-21T07:43:18.902Z,20.30
2023-01-21T07:46:40.695Z,23.37
2023-01-21T07:50:04.997Z,23.50
2023-01-21T07:53:26.870Z,24.50
2023-01-21T07:56:48.630Z,21.30
2023-01-21T08:00:13.545Z,22.20
2023-01-21T08:03:35.398Z,23.13
2023-01-21T08:06:58.855Z,21.63
2023-01-21T08:10:22.253Z,21.07
2023-01-21T08:13:44.561Z,19.77
2023-01-21T08:17:07.951Z,20.47
2023-01-21T08:20:29.371Z,19.43
2023-01-21T08:23:51.280Z,23.47
2023-01-21T08:27:13.134Z,19.43
2023-01-21T08:30:34.559Z,18.50
2023-01-21T08:33:57.878Z,21.40
2023-01-21T08:37:19.565Z,24.07
2023-01-21T08:40:41.430Z,24.20
2023-01-21T08:44:03.139Z,27.53
2023-01-21T08:47:25.118Z,25.27
2023-01-21T08:50:48.098Z,28.50
2023-01-21T08:54:10.195Z,29.63
2023-01-21T08:57:32.251Z,27.57
2023-01-21T09:00:53.875Z,27.27
2023-01-21T09:04:15.725Z,26.70
2023-01-21T09:07:39.231Z,24.73
2023-01-21T09:11:04.254Z,27.23
2023-01-21T09:14:27.570Z,25.57
2023-01-21T09:17:49.402Z,27.53
2023-01-21T09:21:12.397Z,23.77
2023-01-21T09:24:35.380Z,23.97
2023-01-21T09:27:56.772Z,24.97
2023-01-21T09:31:20.587Z,25.90
2023-01-21T09:34:42.198Z,21.80
2023-01-21T09:38:03.993Z,24.20
2023-01-21T09:41:31.459Z,24.37
2023-01-21T09:44:56.699Z,20.10
2023-01-21T09:48:29.723Z,21.47
2023-01-21T09:51:55.856Z,22.53
2023-01-21T09:55:19.978Z,20.07
2023-01-21T09:58:49.122Z,20.03
2023-01-21T10:02:21.743Z,18.30
2023-01-21T10:05:54.732Z,18.17
2023-01-21T10:09:45.421Z,20.77
2023-01-21T10:13:21.563Z,17.60
2023-01-21T10:16:50.134Z,20.90
2023-01-21T10:20:17.133Z,20.20
2023-01-21T10:23:43.932Z,18.77
2023-01-21T10:27:06.500Z,19.97
2023-01-21T10:30:34.014Z,17.20
2023-01-21T10:33:57.719Z,18.73
2023-01-21T10:37:30.358Z,18.93
2023-01-21T10:41:02.517Z,16.63
2023-01-21T10:44:30.007Z,18.10
2023-01-21T10:48:02.344Z,18.03
2023-01-21T10:51:32.043Z,17.90
2023-01-21T10:55:03.803Z,17.03
2023-01-21T10:58:31.413Z,15.53
2023-01-21T11:02:02.207Z,15.90
2023-01-21T11:05:26.198Z,16.87
2023-01-21T11:08:52.306Z,14.77
2023-01-21T11:12:18.607Z,12.90
2023-01-21T11:15:45.579Z,11.70
2023-01-21T11:19:08.940Z,10.37
2023-01-21T11:22:32.198Z,10.80
2023-01-21T11:26:02.604Z,12.53
2023-01-21T11:29:26.285Z,10.67
2023-01-21T11:32:47.906Z,9.93
2023-01-21T11:36:16.003Z,8.57
2023-01-21T11:39:41.703Z,11.30
2023-01-21T11:43:05.095Z,13.97
2023-01-21T11:46:35.780Z,11.57
2023-01-21T11:50:05.334Z,10.13
2023-01-21T11:53:26.978Z,13.07
2023-01-21T11:56:57.150Z,12.60
2023-01-21T12:00:23.217Z,9.80
2023-01-21T12:03:49.534Z,9.20
2023-01-21T12:07:20.745Z,10.13
2023-01-21T12:10:45.290Z,9.00
2023-01-21T12:14:17.487Z,8.20
2023-01-21T12:17:52.267Z,8.20
2023-01-21T12:21:21.402Z,8.00
2023-01-21T12:25:09.505Z,11.07
2023-01-21T12:28:55.594Z,8.63
2023-01-21T12:32:23.853Z,10.07
2023-01-21T12:35:50.055Z,9.07
2023-01-21T12:39:20.878Z,8.70
2023-01-21T12:42:47.167Z,10.57
2023-01-21T12:46:17.785Z,9.47
2023-01-21T12:49:57.131Z,10.90
2023-01-21T12:53:29.614Z,11.47
2023-01-21T12:56:58.239Z,7.77
2023-01-21T13:00:23.357Z,10.17
2023-01-21T13:03:56.675Z,8.27
2023-01-21T13:07:31.815Z,7.10
2023-01-21T13:11:02.294Z,8.10
2023-01-21T13:14:29.399Z,4.57
2023-01-21T13:17:55.227Z,6.50
2023-01-21T13:21:28.312Z,5.50
2023-01-21T13:25:03.254Z,4.80
2023-01-21T13:28:31.358Z,4.03
2023-01-21T13:32:11.819Z,5.77
2023-01-21T13:35:44.080Z,5.37
2023-01-21T13:39:11.110Z,3.50
2023-01-21T13:42:39.965Z,4.53
2023-01-21T13:46:17.447Z,3.10
2023-01-21T13:50:01.788Z,5.37
2023-01-21T13:53:47.759Z,4.67
2023-01-21T13:57:34.969Z,4.90
2023-01-21T14:01:00.879Z,5.80
2023-01-21T14:04:30.816Z,7.00
2023-01-21T14:07:58.429Z,3.67
2023-01-21T14:11:26.201Z,5.93
2023-01-21T14:15:08.432Z,4.97
2023-01-21T14:18:48.684Z,6.90
2023-01-21T14:22:27.955Z,8.47
2023-01-21T14:26:09.999Z,3.30
2023-01-21T14:29:36.452Z,4.80
2023-01-21T14:33:02.802Z,4.20
2023-01-21T14:36:37.090Z,3.67
2023-01-21T14:40:10.366Z,3.67
2023-01-21T14:43:49.273Z,4.97
2023-01-21T14:47:15.962Z,4.23
2023-01-21T14:50:52.313Z,5.67
2023-01-21T14:54:18.081Z,2.93
2023-01-21T14:57:43.420Z,2.83
2023-01-21T15:01:08.000Z,3.77
2023-01-21T15:04:32.196Z,5.60
2023-01-21T15:08:06.292Z,4.07
2023-01-21T15:11:32.489Z,4.63
2023-01-21T15:15:00.099Z,3.13
2023-01-21T15:18:35.573Z,3.20
2023-01-21T15:22:16.464Z,3.90
2023-01-21T15:25:38.283Z,3.53
2023-01-21T15:29:24.710Z,2.70
2023-01-21T15:32:49.130Z,3.47
2023-01-21T15:36:25.851Z,3.00
2023-01-21T15:39:49.380Z,5.77
2023-01-21T15:43:20.078Z,5.47
2023-01-21T15:46:53.014Z,4.70
2023-01-21T15:50:21.920Z,3.23
2023-01-21T15:53:56.422Z,4.50
2023-01-21T15:57:43.845Z,5.13
2023-01-21T16:01:09.686Z,4.23
2023-01-21T16:04:38.455Z,3.30
2023-01-21T16:08:22.092Z,4.47
2023-01-21T16:12:01.955Z,6.50
2023-01-21T16:15:35.433Z,5.77
2023-01-21T16:19:01.351Z,3.47
2023-01-21T16:22:26.005Z,5.17
2023-01-21T16:25:50.399Z,4.47
2023-01-21T16:29:13.942Z,5.20
2023-01-21T16:32:37.464Z,6.77
2023-01-21T16:36:05.608Z,5.17
2023-01-21T16:39:27.490Z,6.80
2023-01-21T16:43:07.135Z,8.73
2023-01-21T16:46:34.588Z,6.50
2023-01-21T16:49:56.358Z,5.13
2023-01-21T16:53:20.105Z,5.73
2023-01-21T16:56:49.041Z,3.77
2023-01-21T17:00:23.421Z,6.43
2023-01-21T17:03:47.202Z,3.93
2023-01-21T17:07:15.035Z,5.20
2023-01-21T17:10:40.080Z,4.60
2023-01-21T17:14:08.218Z,4.57
2023-01-21T17:17:37.058Z,5.63
2023-01-21T17:21:06.051Z,4.63
2023-01-21T17:24:32.423Z,11.47
2023-01-21T17:27:55.480Z,8.93
2023-01-21T17:31:27.251Z,7.40
2023-01-21T17:35:05.104Z,4.07
2023-01-21T17:38:30.082Z,7.23
2023-01-21T17:41:51.957Z,6.97
2023-01-21T17:45:21.985Z,5.67
2023-01-21T17:48:47.168Z,5.27
2023-01-21T17:52:19.976Z,9.47
2023-01-21T17:55:41.931Z,7.33
2023-01-21T17:59:03.654Z,6.17
2023-01-21T18:02:24.960Z,7.73
2023-01-21T18:05:47.383Z,7.47
2023-01-21T18:09:13.238Z,5.13
2023-01-21T18:12:34.948Z,8.40
2023-01-21T18:15:56.682Z,7.60
2023-01-21T18:19:29.523Z,5.07
2023-01-21T18:22:51.917Z,6.03
2023-01-21T18:26:21.387Z,6.63
2023-01-21T18:29:43.588Z,7.70
2023-01-21T18:33:05.395Z,8.93
2023-01-21T18:36:27.266Z,7.40
2023-01-21T18:39:48.973Z,11.30
2023-01-21T18:43:12.086Z,8.40
2023-01-21T18:46:33.795Z,5.90
2023-01-21T18:49:57.791Z,5.20
2023-01-21T18:53:19.784Z,6.20
2023-01-21T18:56:42.453Z,11.17
2023-01-21T19:00:14.106Z,9.50
2023-01-21T19:03:35.462Z,7.50
2023-01-21T19:06:57.115Z,7.47
2023-01-21T19:10:20.975Z,6.87
2023-01-21T19:13:42.410Z,6.97
2023-01-21T19:17:05.562Z,8.13
2023-01-21T19:20:29.128Z,11.90
2023-01-21T19:23:50.860Z,7.80
2023-01-21T19:27:16.828Z,10.90
2023-01-21T19:30:38.735Z,8.33
2023-01-21T19:34:01.698Z,6.70
2023-01-21T19:37:25.550Z,8.80
2023-01-21T19:40:48.162Z,8.67
2023-01-21T19:44:09.574Z,9.33
2023-01-21T19:47:31.330Z,8.17
2023-01-21T19:50:54.052Z,8.93
2023-01-21T19:54:15.701Z,7.37
2023-01-21T19:57:38.249Z,7.97
2023-01-21T20:01:00.097Z,14.37
2023-01-21T20:04:21.933Z,7.10
2023-01-21T20:07:47.301Z,7.97
2023-01-21T20:11:09.172Z,6.70
2023-01-21T20:14:31.031Z,6.50
2023-01-21T20:17:55.033Z,4.90
2023-01-21T20:21:17.136Z,6.37
2023-01-21T20:24:40.373Z,8.63
2023-01-21T20:28:03.874Z,7.97
2023-01-21T20:31:29.229Z,7.20
2023-01-21T20:34:50.894Z,6.17
2023-01-21T20:38:14.956Z,8.07
2023-01-21T20:41:39.034Z,5.80
2023-01-21T20:45:00.694Z,6.07
2023-01-21T20:48:27.123Z,7.27
2023-01-21T20:51:48.690Z,6.10
2023-01-21T20:55:11.227Z,5.00
2023-01-21T20:58:34.826Z,5.80
2023-01-21T21:01:56.537Z,7.07
2023-01-21T21:05:19.446Z,8.23
2023-01-21T21:08:42.647Z,5.27
2023-01-21T21:12:04.359Z,5.57
2023-01-21T21:15:29.750Z,5.37
2023-01-21T21:18:51.859Z,7.63
2023-01-21T21:22:14.213Z,4.57
2023-01-21T21:25:41.105Z,5.90
2023-01-21T21:29:02.690Z,7.80
2023-01-21T21:32:25.912Z,6.10
2023-01-21T21:35:47.880Z,6.60
2023-01-21T21:39:09.744Z,5.80
2023-01-21T21:42:48.725Z,6.57
2023-01-21T21:46:30.433Z,6.47
2023-01-21T21:49:53.407Z,5.27
2023-01-21T21:53:15.329Z,5.60
2023-01-21T21:56:38.239Z,5.90
2023-01-21T21:59:59.968Z,6.53
2023-01-21T22:03:21.315Z,6.37
2023-01-21T22:06:44.546Z,6.00
2023-01-21T22:10:07.485Z,6.33
2023-01-21T22:13:30.058Z,7.97
2023-01-21T22:16:53.986Z,5.03
2023-01-21T22:20:15.736Z,5.30
2023-01-21T22:23:38.702Z,5.83
2023-01-21T22:27:00.038Z,5.53
2023-01-21T22:30:21.717Z,9.00
2023-01-21T22:33:43.142Z,5.63
2023-01-21T22:37:04.731Z,4.77
2023-01-21T22:40:28.245Z,5.90
2023-01-21T22:43:51.237Z,7.07
2023-01-21T22:47:13.570Z,5.17
2023-01-21T22:50:35.079Z,6.70
2023-01-21T22:53:57.318Z,6.27
2023-01-21T22:57:20.492Z,5.97
2023-01-21T23:00:42.234Z,5.30
2023-01-21T23:04:04.068Z,9.27
2023-01-21T23:07:25.910Z,5.60
2023-01-21T23:10:48.617Z,4.83
2023-01-21T23:14:11.653Z,6.63
2023-01-21T23:17:33.217Z,8.20
2023-01-21T23:20:55.372Z,7.43
2023-01-21T23:24:16.887Z,6.83
2023-01-21T23:27:38.711Z,9.07
2023-01-21T23:31:06.193Z,9.63
2023-01-21T23:34:27.770Z,9.03
2023-01-21T23:37:49.597Z,7.57
2023-01-21T23:41:16.867Z,6.33
2023-01-21T23:44:38.817Z,6.03
2023-01-21T23:48:01.907Z,5.37
2023-01-21T23:51:23.880Z,7.17
2023-01-21T23:54:46.118Z,8.00
2023-01-21T23:58:07.860Z,5.03
